sensor_id;sensor_type;location;lat;lon;timestamp;pressure;altitude;pressure_sealevel;temperature;humidity
66430;BME280;53242;51.694;10.006;2023-05-03T00:01:42;100715.81;;;6.88;67.32
66430;BME280;53242;51.694;10.006;2023-05-03T00:04:05;100718.56;;;7.06;66.71
66430;BME280;53242;51.694;10.006;2023-05-03T00:06:27;100725.47;;;6.98;67.04
66430;BME280;53242;51.694;10.006;2023-05-03T00:08:49;100713.59;;;6.94;67.44
66430;BME280;53242;51.694;10.006;2023-05-03T00:11:12;100717.06;;;6.84;67.35
66430;BME280;53242;51.694;10.006;2023-05-03T00:13:35;100715.44;;;6.64;67.90
66430;BME280;53242;51.694;10.006;2023-05-03T00:15:57;100712.53;;;6.67;67.79
66430;BME280;53242;51.694;10.006;2023-05-03T00:18:20;100712.78;;;6.73;67.60
66430;BME280;53242;51.694;10.006;2023-05-03T00:20:42;100716.09;;;6.85;66.78
66430;BME280;53242;51.694;10.006;2023-05-03T00:23:05;100720.38;;;6.86;66.64
66430;BME280;53242;51.694;10.006;2023-05-03T00:25:28;100716.41;;;6.72;67.12
66430;BME280;53242;51.694;10.006;2023-05-03T00:27:50;100713.06;;;6.80;66.77
66430;BME280;53242;51.694;10.006;2023-05-03T00:30:13;100717.22;;;6.63;66.98
66430;BME280;53242;51.694;10.006;2023-05-03T00:32:35;100709.63;;;6.60;67.46
66430;BME280;53242;51.694;10.006;2023-05-03T00:34:57;100713.34;;;6.57;67.61
66430;BME280;53242;51.694;10.006;2023-05-03T00:37:20;100716.41;;;6.72;66.94
66430;BME280;53242;51.694;10.006;2023-05-03T00:39:42;100725.22;;;6.62;67.56
66430;BME280;53242;51.694;10.006;2023-05-03T00:42:05;100720.94;;;6.51;67.83
66430;BME280;53242;51.694;10.006;2023-05-03T00:44:27;100731.72;;;6.38;68.19
66430;BME280;53242;51.694;10.006;2023-05-03T00:46:50;100729.50;;;6.53;67.99
66430;BME280;53242;51.694;10.006;2023-05-03T00:49:13;100733.53;;;6.57;67.59
66430;BME280;53242;51.694;10.006;2023-05-03T00:51:35;100725.50;;;6.58;67.42
66430;BME280;53242;51.694;10.006;2023-05-03T00:53:58;100728.81;;;6.41;68.25
66430;BME280;53242;51.694;10.006;2023-05-03T00:56:20;100726.88;;;6.53;68.09
66430;BME280;53242;51.694;10.006;2023-05-03T00:58:44;100728.00;;;6.60;67.45
66430;BME280;53242;51.694;10.006;2023-05-03T01:01:06;100728.53;;;6.54;67.94
66430;BME280;53242;51.694;10.006;2023-05-03T01:03:29;100731.97;;;6.45;68.16
66430;BME280;53242;51.694;10.006;2023-05-03T01:06:17;100732.63;;;6.27;69.25
66430;BME280;53242;51.694;10.006;2023-05-03T01:09:10;100729.34;;;6.35;69.48
66430;BME280;53242;51.694;10.006;2023-05-03T01:11:47;100727.41;;;6.37;69.51
66430;BME280;53242;51.694;10.006;2023-05-03T01:17:03;100727.00;;;6.32;69.36
66430;BME280;53242;51.694;10.006;2023-05-03T01:19:43;100725.50;;;6.39;68.68
66430;BME280;53242;51.694;10.006;2023-05-03T01:22:23;100730.59;;;6.21;69.31
66430;BME280;53242;51.694;10.006;2023-05-03T01:24:50;100724.09;;;6.35;69.03
66430;BME280;53242;51.694;10.006;2023-05-03T01:27:15;100722.97;;;6.18;69.08
66430;BME280;53242;51.694;10.006;2023-05-03T01:29:38;100726.03;;;6.13;69.37
66430;BME280;53242;51.694;10.006;2023-05-03T01:32:03;100717.16;;;6.14;69.48
66430;BME280;53242;51.694;10.006;2023-05-03T01:34:50;100718.00;;;6.15;69.32
66430;BME280;53242;51.694;10.006;2023-05-03T01:37:16;100724.81;;;5.96;70.27
66430;BME280;53242;51.694;10.006;2023-05-03T01:40:02;100717.97;;;6.05;69.85
66430;BME280;53242;51.694;10.006;2023-05-03T01:42:32;100722.44;;;6.24;68.65
66430;BME280;53242;51.694;10.006;2023-05-03T01:44:57;100729.03;;;6.08;69.00
66430;BME280;53242;51.694;10.006;2023-05-03T01:47:20;100729.75;;;6.11;69.49
66430;BME280;53242;51.694;10.006;2023-05-03T01:49:42;100735.19;;;5.98;69.47
66430;BME280;53242;51.694;10.006;2023-05-03T01:52:05;100731.63;;;5.99;69.26
66430;BME280;53242;51.694;10.006;2023-05-03T01:54:27;100735.25;;;5.76;70.26
66430;BME280;53242;51.694;10.006;2023-05-03T01:56:50;100741.06;;;5.80;70.02
66430;BME280;53242;51.694;10.006;2023-05-03T01:59:12;100743.66;;;5.80;70.19
66430;BME280;53242;51.694;10.006;2023-05-03T02:01:34;100737.44;;;5.71;70.25
66430;BME280;53242;51.694;10.006;2023-05-03T02:03:57;100739.38;;;5.69;70.32
66430;BME280;53242;51.694;10.006;2023-05-03T02:06:19;100741.44;;;5.75;69.89
66430;BME280;53242;51.694;10.006;2023-05-03T02:08:41;100742.72;;;5.81;69.75
66430;BME280;53242;51.694;10.006;2023-05-03T02:11:06;100748.53;;;5.54;70.58
66430;BME280;53242;51.694;10.006;2023-05-03T02:13:28;100745.78;;;5.86;70.08
66430;BME280;53242;51.694;10.006;2023-05-03T02:15:51;100737.56;;;5.70;70.26
66430;BME280;53242;51.694;10.006;2023-05-03T02:18:13;100743.44;;;5.93;69.50
66430;BME280;53242;51.694;10.006;2023-05-03T02:20:37;100736.84;;;5.58;70.49
66430;BME280;53242;51.694;10.006;2023-05-03T02:22:59;100742.66;;;5.62;70.47
66430;BME280;53242;51.694;10.006;2023-05-03T02:25:22;100738.22;;;5.62;70.48
66430;BME280;53242;51.694;10.006;2023-05-03T02:27:44;100742.88;;;5.58;70.65
66430;BME280;53242;51.694;10.006;2023-05-03T02:30:08;100750.16;;;5.76;70.41
66430;BME280;53242;51.694;10.006;2023-05-03T02:32:35;100752.19;;;5.72;70.08
66430;BME280;53242;51.694;10.006;2023-05-03T02:34:57;100749.88;;;5.79;69.80
66430;BME280;53242;51.694;10.006;2023-05-03T02:37:20;100747.38;;;5.78;69.88
66430;BME280;53242;51.694;10.006;2023-05-03T02:39:43;100744.19;;;5.64;70.27
66430;BME280;53242;51.694;10.006;2023-05-03T02:42:08;100746.53;;;5.67;70.58
66430;BME280;53242;51.694;10.006;2023-05-03T02:44:30;100750.06;;;5.56;70.39
66430;BME280;53242;51.694;10.006;2023-05-03T02:46:53;100759.56;;;5.57;71.13
66430;BME280;53242;51.694;10.006;2023-05-03T02:49:16;100756.50;;;5.52;71.06
66430;BME280;53242;51.694;10.006;2023-05-03T02:51:39;100768.03;;;5.40;71.46
66430;BME280;53242;51.694;10.006;2023-05-03T02:54:02;100761.63;;;5.54;71.09
66430;BME280;53242;51.694;10.006;2023-05-03T02:56:24;100762.44;;;5.54;71.09
66430;BME280;53242;51.694;10.006;2023-05-03T02:58:49;100767.56;;;5.56;70.54
66430;BME280;53242;51.694;10.006;2023-05-03T03:01:12;100771.91;;;5.46;70.83
66430;BME280;53242;51.694;10.006;2023-05-03T03:03:35;100763.69;;;5.50;70.59
66430;BME280;53242;51.694;10.006;2023-05-03T03:05:57;100768.97;;;5.39;71.08
66430;BME280;53242;51.694;10.006;2023-05-03T03:08:21;100774.16;;;5.29;71.41
66430;BME280;53242;51.694;10.006;2023-05-03T03:10:44;100776.84;;;5.39;71.19
66430;BME280;53242;51.694;10.006;2023-05-03T03:13:08;100772.56;;;5.38;70.71
66430;BME280;53242;51.694;10.006;2023-05-03T03:15:33;100771.75;;;5.37;70.85
66430;BME280;53242;51.694;10.006;2023-05-03T03:17:56;100784.38;;;5.32;71.03
66430;BME280;53242;51.694;10.006;2023-05-03T03:20:18;100779.13;;;5.53;70.79
66430;BME280;53242;51.694;10.006;2023-05-03T03:22:43;100775.69;;;5.32;71.06
66430;BME280;53242;51.694;10.006;2023-05-03T03:25:07;100777.63;;;5.30;71.55
66430;BME280;53242;51.694;10.006;2023-05-03T03:27:29;100781.50;;;5.35;71.06
66430;BME280;53242;51.694;10.006;2023-05-03T03:29:52;100781.81;;;5.21;71.42
66430;BME280;53242;51.694;10.006;2023-05-03T03:32:14;100775.81;;;5.30;71.31
66430;BME280;53242;51.694;10.006;2023-05-03T03:34:37;100782.72;;;5.31;71.56
66430;BME280;53242;51.694;10.006;2023-05-03T03:37:00;100781.63;;;5.34;71.09
66430;BME280;53242;51.694;10.006;2023-05-03T03:39:23;100790.31;;;5.13;71.82
66430;BME280;53242;51.694;10.006;2023-05-03T03:41:46;100798.47;;;5.20;71.67
66430;BME280;53242;51.694;10.006;2023-05-03T03:44:09;100795.19;;;4.85;72.52
66430;BME280;53242;51.694;10.006;2023-05-03T03:46:31;100792.78;;;5.15;71.67
66430;BME280;53242;51.694;10.006;2023-05-03T03:48:54;100787.28;;;4.97;72.91
66430;BME280;53242;51.694;10.006;2023-05-03T03:51:18;100790.72;;;4.97;72.38
66430;BME280;53242;51.694;10.006;2023-05-03T03:53:43;100787.94;;;5.10;71.98
66430;BME280;53242;51.694;10.006;2023-05-03T03:56:05;100783.78;;;5.07;71.55
66430;BME280;53242;51.694;10.006;2023-05-03T03:58:28;100785.88;;;4.92;71.89
66430;BME280;53242;51.694;10.006;2023-05-03T04:00:51;100789.28;;;5.04;72.11
66430;BME280;53242;51.694;10.006;2023-05-03T04:03:17;100791.91;;;5.04;71.85
66430;BME280;53242;51.694;10.006;2023-05-03T04:05:39;100787.03;;;5.00;71.98
66430;BME280;53242;51.694;10.006;2023-05-03T04:08:02;100788.38;;;4.94;71.83
66430;BME280;53242;51.694;10.006;2023-05-03T04:10:27;100780.94;;;5.10;71.56
66430;BME280;53242;51.694;10.006;2023-05-03T04:12:49;100789.91;;;5.18;71.15
66430;BME280;53242;51.694;10.006;2023-05-03T04:15:12;100792.53;;;4.97;71.84
66430;BME280;53242;51.694;10.006;2023-05-03T04:17:35;100788.78;;;5.10;71.48
66430;BME280;53242;51.694;10.006;2023-05-03T04:20:01;100788.91;;;5.09;71.15
66430;BME280;53242;51.694;10.006;2023-05-03T04:22:33;100790.31;;;5.13;71.47
66430;BME280;53242;51.694;10.006;2023-05-03T04:24:55;100788.50;;;5.14;71.37
66430;BME280;53242;51.694;10.006;2023-05-03T04:27:18;100784.81;;;5.16;71.45
66430;BME280;53242;51.694;10.006;2023-05-03T04:29:40;100789.88;;;5.08;71.44
66430;BME280;53242;51.694;10.006;2023-05-03T04:32:03;100787.28;;;5.18;70.89
66430;BME280;53242;51.694;10.006;2023-05-03T04:34:25;100789.09;;;5.17;70.97
66430;BME280;53242;51.694;10.006;2023-05-03T04:36:50;100786.47;;;5.17;71.20
66430;BME280;53242;51.694;10.006;2023-05-03T04:39:12;100792.44;;;5.19;71.17
66430;BME280;53242;51.694;10.006;2023-05-03T04:41:35;100786.41;;;5.29;71.56
66430;BME280;53242;51.694;10.006;2023-05-03T04:43:58;100788.72;;;5.43;70.84
66430;BME280;53242;51.694;10.006;2023-05-03T04:46:20;100783.22;;;5.25;71.04
66430;BME280;53242;51.694;10.006;2023-05-03T04:48:44;100786.16;;;5.32;71.01
66430;BME280;53242;51.694;10.006;2023-05-03T04:51:07;100783.22;;;5.25;71.13
66430;BME280;53242;51.694;10.006;2023-05-03T04:53:30;100789.03;;;5.29;71.05
66430;BME280;53242;51.694;10.006;2023-05-03T04:56:01;100786.72;;;5.35;71.49
66430;BME280;53242;51.694;10.006;2023-05-03T04:58:26;100799.91;;;5.45;70.96
66430;BME280;53242;51.694;10.006;2023-05-03T05:00:49;100794.34;;;5.38;71.32
66430;BME280;53242;51.694;10.006;2023-05-03T05:03:18;100807.75;;;5.45;71.17
66430;BME280;53242;51.694;10.006;2023-05-03T05:05:42;100810.31;;;5.56;70.18
66430;BME280;53242;51.694;10.006;2023-05-03T05:08:06;100810.84;;;5.60;70.26
66430;BME280;53242;51.694;10.006;2023-05-03T05:10:40;100818.06;;;5.68;70.02
66430;BME280;53242;51.694;10.006;2023-05-03T05:13:02;100814.75;;;5.66;69.96
66430;BME280;53242;51.694;10.006;2023-05-03T05:15:24;100815.72;;;5.65;70.41
66430;BME280;53242;51.694;10.006;2023-05-03T05:17:47;100813.31;;;5.83;69.63
66430;BME280;53242;51.694;10.006;2023-05-03T05:20:10;100811.72;;;5.70;69.74
66430;BME280;53242;51.694;10.006;2023-05-03T05:22:37;100813.38;;;5.62;70.30
66430;BME280;53242;51.694;10.006;2023-05-03T05:25:00;100810.75;;;5.62;70.29
66430;BME280;53242;51.694;10.006;2023-05-03T05:27:23;100819.06;;;5.76;69.89
66430;BME280;53242;51.694;10.006;2023-05-03T05:29:48;100821.97;;;5.73;70.59
66430;BME280;53242;51.694;10.006;2023-05-03T05:32:11;100814.19;;;5.93;69.84
66430;BME280;53242;51.694;10.006;2023-05-03T05:34:34;100808.72;;;6.37;68.80
66430;BME280;53242;51.694;10.006;2023-05-03T05:36:56;100809.06;;;6.83;67.47
66430;BME280;53242;51.694;10.006;2023-05-03T05:39:20;100810.03;;;6.82;67.24
66430;BME280;53242;51.694;10.006;2023-05-03T05:41:44;100812.09;;;6.98;66.60
66430;BME280;53242;51.694;10.006;2023-05-03T05:44:06;100817.06;;;6.91;66.78
66430;BME280;53242;51.694;10.006;2023-05-03T05:46:29;100818.97;;;7.18;66.22
66430;BME280;53242;51.694;10.006;2023-05-03T05:48:51;100815.22;;;7.50;65.19
66430;BME280;53242;51.694;10.006;2023-05-03T05:51:14;100823.13;;;7.88;64.16
66430;BME280;53242;51.694;10.006;2023-05-03T05:53:37;100820.63;;;7.96;63.55
66430;BME280;53242;51.694;10.006;2023-05-03T05:55:59;100818.94;;;8.05;63.75
66430;BME280;53242;51.694;10.006;2023-05-03T05:58:23;100832.03;;;7.77;64.36
66430;BME280;53242;51.694;10.006;2023-05-03T06:00:49;100822.53;;;8.04;63.94
66430;BME280;53242;51.694;10.006;2023-05-03T06:03:12;100829.94;;;7.81;64.64
66430;BME280;53242;51.694;10.006;2023-05-03T06:05:35;100827.53;;;8.25;63.34
66430;BME280;53242;51.694;10.006;2023-05-03T06:07:57;100830.56;;;8.02;63.72
66430;BME280;53242;51.694;10.006;2023-05-03T06:10:19;100833.41;;;8.37;63.29
66430;BME280;53242;51.694;10.006;2023-05-03T06:12:46;100837.53;;;8.49;62.81
66430;BME280;53242;51.694;10.006;2023-05-03T06:15:13;100834.59;;;7.87;64.21
66430;BME280;53242;51.694;10.006;2023-05-03T06:17:36;100837.81;;;8.18;63.87
66430;BME280;53242;51.694;10.006;2023-05-03T06:19:58;100838.09;;;8.53;63.09
66430;BME280;53242;51.694;10.006;2023-05-03T06:22:21;100837.91;;;7.99;64.52
66430;BME280;53242;51.694;10.006;2023-05-03T06:24:43;100836.25;;;7.88;64.72
66430;BME280;53242;51.694;10.006;2023-05-03T06:27:05;100833.22;;;7.93;64.03
66430;BME280;53242;51.694;10.006;2023-05-03T06:29:28;100831.69;;;8.28;63.55
66430;BME280;53242;51.694;10.006;2023-05-03T06:31:52;100835.41;;;7.97;64.04
66430;BME280;53242;51.694;10.006;2023-05-03T06:34:19;100835.88;;;8.20;63.62
66430;BME280;53242;51.694;10.006;2023-05-03T06:36:43;100825.94;;;8.14;63.58
66430;BME280;53242;51.694;10.006;2023-05-03T06:39:05;100831.78;;;7.70;64.39
66430;BME280;53242;51.694;10.006;2023-05-03T06:41:31;100827.19;;;8.38;63.46
66430;BME280;53242;51.694;10.006;2023-05-03T06:43:57;100830.72;;;8.29;63.21
66430;BME280;53242;51.694;10.006;2023-05-03T06:46:20;100827.44;;;8.72;62.52
66430;BME280;53242;51.694;10.006;2023-05-03T06:48:42;100834.09;;;8.49;63.35
66430;BME280;53242;51.694;10.006;2023-05-03T06:51:05;100828.34;;;8.81;62.15
66430;BME280;53242;51.694;10.006;2023-05-03T06:53:27;100828.94;;;8.93;61.96
66430;BME280;53242;51.694;10.006;2023-05-03T06:55:50;100831.94;;;9.16;61.42
66430;BME280;53242;51.694;10.006;2023-05-03T06:58:13;100830.06;;;9.09;61.67
66430;BME280;53242;51.694;10.006;2023-05-03T07:00:36;100834.50;;;8.90;62.02
66430;BME280;53242;51.694;10.006;2023-05-03T07:03:00;100834.50;;;9.26;61.73
66430;BME280;53242;51.694;10.006;2023-05-03T07:05:22;100835.84;;;9.30;60.34
66430;BME280;53242;51.694;10.006;2023-05-03T07:07:45;100834.53;;;9.34;59.29
66430;BME280;53242;51.694;10.006;2023-05-03T07:10:07;100836.41;;;9.42;59.24
66430;BME280;53242;51.694;10.006;2023-05-03T07:12:30;100838.88;;;9.44;58.76
66430;BME280;53242;51.694;10.006;2023-05-03T07:14:56;100838.69;;;9.63;58.58
66430;BME280;53242;51.694;10.006;2023-05-03T07:17:18;100841.59;;;9.52;59.25
66430;BME280;53242;51.694;10.006;2023-05-03T07:19:41;100842.47;;;9.61;57.53
66430;BME280;53242;51.694;10.006;2023-05-03T07:22:03;100842.00;;;9.65;57.34
66430;BME280;53242;51.694;10.006;2023-05-03T07:24:25;100838.22;;;9.42;59.08
66430;BME280;53242;51.694;10.006;2023-05-03T07:26:48;100836.06;;;9.90;57.44
66430;BME280;53242;51.694;10.006;2023-05-03T07:29:10;100840.81;;;10.20;56.63
66430;BME280;53242;51.694;10.006;2023-05-03T07:31:33;100831.13;;;9.68;57.19
66430;BME280;53242;51.694;10.006;2023-05-03T07:33:55;100834.19;;;9.82;57.64
66430;BME280;53242;51.694;10.006;2023-05-03T07:36:17;100836.22;;;9.35;57.58
66430;BME280;53242;51.694;10.006;2023-05-03T07:38:40;100832.22;;;9.31;58.29
66430;BME280;53242;51.694;10.006;2023-05-03T07:41:02;100834.25;;;9.01;58.95
66430;BME280;53242;51.694;10.006;2023-05-03T07:43:25;100831.41;;;8.77;59.21
66430;BME280;53242;51.694;10.006;2023-05-03T07:45:48;100830.88;;;8.91;58.65
66430;BME280;53242;51.694;10.006;2023-05-03T07:48:10;100827.00;;;8.77;58.69
66430;BME280;53242;51.694;10.006;2023-05-03T07:50:32;100827.66;;;8.97;58.96
66430;BME280;53242;51.694;10.006;2023-05-03T07:52:55;100826.59;;;9.08;58.35
66430;BME280;53242;51.694;10.006;2023-05-03T07:55:18;100825.66;;;9.62;56.93
66430;BME280;53242;51.694;10.006;2023-05-03T07:57:41;100819.53;;;10.14;55.31
66430;BME280;53242;51.694;10.006;2023-05-03T08:00:03;100818.50;;;10.41;55.39
66430;BME280;53242;51.694;10.006;2023-05-03T08:02:34;100817.81;;;10.39;53.98
66430;BME280;53242;51.694;10.006;2023-05-03T08:04:57;100819.63;;;10.39;54.73
66430;BME280;53242;51.694;10.006;2023-05-03T08:07:19;100817.41;;;11.10;53.13
66430;BME280;53242;51.694;10.006;2023-05-03T08:09:42;100812.09;;;10.68;53.53
66430;BME280;53242;51.694;10.006;2023-05-03T08:12:05;100800.06;;;10.66;53.59
66430;BME280;53242;51.694;10.006;2023-05-03T08:14:28;100808.88;;;10.32;54.10
66430;BME280;53242;51.694;10.006;2023-05-03T08:16:50;100816.66;;;9.99;54.66
66430;BME280;53242;51.694;10.006;2023-05-03T08:19:13;100805.41;;;9.97;55.05
66430;BME280;53242;51.694;10.006;2023-05-03T08:21:35;100808.38;;;9.94;54.71
66430;BME280;53242;51.694;10.006;2023-05-03T08:23:58;100812.50;;;9.62;55.13
66430;BME280;53242;51.694;10.006;2023-05-03T08:26:20;100816.47;;;9.66;55.18
66430;BME280;53242;51.694;10.006;2023-05-03T08:28:43;100810.91;;;9.69;54.89
66430;BME280;53242;51.694;10.006;2023-05-03T08:31:05;100808.00;;;9.80;55.16
66430;BME280;53242;51.694;10.006;2023-05-03T08:33:29;100810.38;;;9.65;55.17
66430;BME280;53242;51.694;10.006;2023-05-03T08:35:51;100809.44;;;9.75;54.99
66430;BME280;53242;51.694;10.006;2023-05-03T08:38:13;100808.19;;;9.61;55.00
66430;BME280;53242;51.694;10.006;2023-05-03T08:40:36;100809.66;;;9.29;55.40
66430;BME280;53242;51.694;10.006;2023-05-03T08:43:06;100803.94;;;9.60;54.36
66430;BME280;53242;51.694;10.006;2023-05-03T08:45:31;100799.66;;;9.67;54.40
66430;BME280;53242;51.694;10.006;2023-05-03T08:47:54;100795.91;;;10.12;53.07
66430;BME280;53242;51.694;10.006;2023-05-03T08:50:16;100802.66;;;10.41;52.47
66430;BME280;53242;51.694;10.006;2023-05-03T08:52:39;100803.38;;;11.34;50.92
66430;BME280;53242;51.694;10.006;2023-05-03T08:55:03;100801.19;;;11.46;50.34
66430;BME280;53242;51.694;10.006;2023-05-03T08:57:26;100791.59;;;11.61;51.17
66430;BME280;53242;51.694;10.006;2023-05-03T08:59:50;100794.09;;;11.55;50.42
66430;BME280;53242;51.694;10.006;2023-05-03T09:02:13;100792.75;;;11.59;49.81
66430;BME280;53242;51.694;10.006;2023-05-03T09:04:36;100794.47;;;11.18;52.07
66430;BME280;53242;51.694;10.006;2023-05-03T09:07:06;100796.47;;;11.00;50.12
66430;BME280;53242;51.694;10.006;2023-05-03T09:09:30;100794.13;;;11.22;49.98
66430;BME280;53242;51.694;10.006;2023-05-03T09:11:52;100797.81;;;11.77;49.41
66430;BME280;53242;51.694;10.006;2023-05-03T09:14:17;100799.66;;;11.68;49.80
66430;BME280;53242;51.694;10.006;2023-05-03T09:16:40;100795.91;;;11.54;48.92
66430;BME280;53242;51.694;10.006;2023-05-03T09:19:06;100787.72;;;11.97;49.27
66430;BME280;53242;51.694;10.006;2023-05-03T09:21:30;100794.78;;;12.05;48.69
66430;BME280;53242;51.694;10.006;2023-05-03T09:23:54;100787.81;;;12.43;49.61
66430;BME280;53242;51.694;10.006;2023-05-03T09:26:27;100795.09;;;12.10;48.78
66430;BME280;53242;51.694;10.006;2023-05-03T09:28:49;100792.31;;;12.03;48.73
66430;BME280;53242;51.694;10.006;2023-05-03T09:31:12;100797.06;;;11.43;49.96
66430;BME280;53242;51.694;10.006;2023-05-03T09:33:34;100792.94;;;11.41;49.92
66430;BME280;53242;51.694;10.006;2023-05-03T09:36:00;100799.25;;;11.15;49.55
66430;BME280;53242;51.694;10.006;2023-05-03T09:38:28;100801.34;;;11.52;48.80
66430;BME280;53242;51.694;10.006;2023-05-03T09:40:50;100803.47;;;11.74;48.65
66430;BME280;53242;51.694;10.006;2023-05-03T09:43:12;100799.00;;;11.74;48.24
66430;BME280;53242;51.694;10.006;2023-05-03T09:45:37;100797.38;;;11.65;47.89
66430;BME280;53242;51.694;10.006;2023-05-03T09:48:01;100790.53;;;11.95;47.85
66430;BME280;53242;51.694;10.006;2023-05-03T09:50:24;100781.78;;;12.26;48.30
66430;BME280;53242;51.694;10.006;2023-05-03T09:52:47;100775.06;;;12.15;48.19
66430;BME280;53242;51.694;10.006;2023-05-03T09:55:10;100770.19;;;11.88;48.16
66430;BME280;53242;51.694;10.006;2023-05-03T09:57:32;100770.13;;;12.12;47.71
66430;BME280;53242;51.694;10.006;2023-05-03T09:59:55;100780.16;;;12.48;47.13
66430;BME280;53242;51.694;10.006;2023-05-03T10:02:17;100778.13;;;12.59;47.25
66430;BME280;53242;51.694;10.006;2023-05-03T10:04:47;100776.84;;;12.46;47.64
66430;BME280;53242;51.694;10.006;2023-05-03T10:07:14;100773.59;;;12.44;47.61
66430;BME280;53242;51.694;10.006;2023-05-03T10:09:41;100771.03;;;12.97;46.58
66430;BME280;53242;51.694;10.006;2023-05-03T10:12:07;100773.44;;;12.38;47.11
66430;BME280;53242;51.694;10.006;2023-05-03T10:14:30;100766.38;;;12.76;46.37
66430;BME280;53242;51.694;10.006;2023-05-03T10:16:57;100773.28;;;12.39;46.86
66430;BME280;53242;51.694;10.006;2023-05-03T10:19:29;100762.22;;;12.59;46.67
66430;BME280;53242;51.694;10.006;2023-05-03T10:22:06;100766.03;;;12.33;46.99
66430;BME280;53242;51.694;10.006;2023-05-03T10:24:28;100759.19;;;12.70;46.40
66430;BME280;53242;51.694;10.006;2023-05-03T10:26:51;100756.59;;;13.00;46.03
66430;BME280;53242;51.694;10.006;2023-05-03T10:32:33;100755.44;;;13.18;46.42
66430;BME280;53242;51.694;10.006;2023-05-03T10:34:59;100750.03;;;13.11;46.33
66430;BME280;53242;51.694;10.006;2023-05-03T10:37:25;100748.63;;;12.62;47.20
66430;BME280;53242;51.694;10.006;2023-05-03T10:39:51;100740.22;;;12.96;45.96
66430;BME280;53242;51.694;10.006;2023-05-03T10:42:13;100746.81;;;12.86;46.52
66430;BME280;53242;51.694;10.006;2023-05-03T10:44:50;100743.50;;;12.83;45.49
66430;BME280;53242;51.694;10.006;2023-05-03T10:47:15;100747.75;;;13.08;46.59
66430;BME280;53242;51.694;10.006;2023-05-03T10:49:37;100752.97;;;13.01;46.96
66430;BME280;53242;51.694;10.006;2023-05-03T10:52:00;100739.69;;;13.39;46.37
66430;BME280;53242;51.694;10.006;2023-05-03T10:54:22;100744.41;;;13.14;46.04
66430;BME280;53242;51.694;10.006;2023-05-03T10:56:49;100746.91;;;13.45;44.91
66430;BME280;53242;51.694;10.006;2023-05-03T10:59:12;100742.34;;;13.54;45.24
66430;BME280;53242;51.694;10.006;2023-05-03T11:01:34;100739.72;;;13.16;46.60
66430;BME280;53242;51.694;10.006;2023-05-03T11:04:09;100735.28;;;13.76;45.43
66430;BME280;53242;51.694;10.006;2023-05-03T11:06:35;100734.00;;;13.72;45.60
66430;BME280;53242;51.694;10.006;2023-05-03T11:08:58;100738.75;;;13.32;44.86
66430;BME280;53242;51.694;10.006;2023-05-03T11:11:20;100738.63;;;13.10;45.66
66430;BME280;53242;51.694;10.006;2023-05-03T11:13:43;100739.09;;;13.29;45.56
66430;BME280;53242;51.694;10.006;2023-05-03T11:16:06;100739.47;;;13.86;45.29
66430;BME280;53242;51.694;10.006;2023-05-03T11:18:28;100728.03;;;14.00;44.17
66430;BME280;53242;51.694;10.006;2023-05-03T11:20:51;100742.41;;;13.91;45.18
66430;BME280;53242;51.694;10.006;2023-05-03T11:23:14;100723.53;;;14.01;44.74
66430;BME280;53242;51.694;10.006;2023-05-03T11:25:37;100722.31;;;14.40;44.19
66430;BME280;53242;51.694;10.006;2023-05-03T11:28:00;100723.25;;;14.10;44.82
66430;BME280;53242;51.694;10.006;2023-05-03T11:30:23;100714.44;;;14.10;45.31
66430;BME280;53242;51.694;10.006;2023-05-03T11:32:46;100714.03;;;14.28;44.60
66430;BME280;53242;51.694;10.006;2023-05-03T11:35:09;100713.53;;;14.39;44.85
66430;BME280;53242;51.694;10.006;2023-05-03T11:37:32;100704.34;;;14.20;44.33
66430;BME280;53242;51.694;10.006;2023-05-03T11:39:55;100701.13;;;14.46;44.42
66430;BME280;53242;51.694;10.006;2023-05-03T11:42:17;100694.34;;;14.01;45.05
66430;BME280;53242;51.694;10.006;2023-05-03T11:44:40;100689.94;;;14.08;44.82
66430;BME280;53242;51.694;10.006;2023-05-03T11:47:02;100687.59;;;14.41;44.23
66430;BME280;53242;51.694;10.006;2023-05-03T11:49:25;100690.88;;;14.22;44.65
66430;BME280;53242;51.694;10.006;2023-05-03T11:51:47;100693.47;;;14.37;44.13
66430;BME280;53242;51.694;10.006;2023-05-03T11:54:10;100695.19;;;14.44;43.82
66430;BME280;53242;51.694;10.006;2023-05-03T11:56:32;100698.09;;;14.28;43.55
66430;BME280;53242;51.694;10.006;2023-05-03T11:58:57;100695.44;;;14.28;43.83
66430;BME280;53242;51.694;10.006;2023-05-03T12:01:21;100693.94;;;13.82;43.82
66430;BME280;53242;51.694;10.006;2023-05-03T12:03:44;100696.44;;;14.05;43.42
66430;BME280;53242;51.694;10.006;2023-05-03T12:06:11;100692.41;;;14.09;43.69
66430;BME280;53242;51.694;10.006;2023-05-03T12:08:33;100685.06;;;14.33;44.64
66430;BME280;53242;51.694;10.006;2023-05-03T12:10:56;100682.53;;;14.46;43.78
66430;BME280;53242;51.694;10.006;2023-05-03T12:13:35;100682.34;;;14.26;44.08
66430;BME280;53242;51.694;10.006;2023-05-03T12:15:58;100682.41;;;14.33;44.10
66430;BME280;53242;51.694;10.006;2023-05-03T12:18:21;100684.50;;;14.38;43.95
66430;BME280;53242;51.694;10.006;2023-05-03T12:20:44;100675.31;;;14.62;43.96
66430;BME280;53242;51.694;10.006;2023-05-03T12:23:07;100668.97;;;14.85;43.50
66430;BME280;53242;51.694;10.006;2023-05-03T12:25:30;100676.34;;;14.39;43.54
66430;BME280;53242;51.694;10.006;2023-05-03T12:27:55;100666.34;;;14.41;43.77
66430;BME280;53242;51.694;10.006;2023-05-03T12:30:17;100665.47;;;14.56;43.73
66430;BME280;53242;51.694;10.006;2023-05-03T12:32:40;100670.00;;;14.62;43.67
66430;BME280;53242;51.694;10.006;2023-05-03T12:35:04;100673.06;;;14.87;43.08
66430;BME280;53242;51.694;10.006;2023-05-03T12:37:26;100662.81;;;14.56;43.60